Airfield :
LOGIN :

Register | Disclaimer

   EN    FR    IT 

 










Legend :    VFR   Marginal VFR   IFR   Intensive IFR   Very Intensive IFR
Visi :
Ceiling :
>= 8 km
>= 3000ft
5 to 8 km
1000 to 3000 ft
1500m to 5 km
500 to 1000 ft
800 to 1500m
200 to 500 ft
< 800m
< 200 ft
Symbols :   Thunderstorms  Fog  Heavy snow  Heavy precipitations  Wind > 20 kt
SIGMETs :     Misc.  Thunderstorms  Icing  Turbulence  Mountain Waves  Volcanic Ashes






- Airport Elevation : 1411 ft
- IATA code : ZHI


LSZG - Grenchen

CURRENT METAR :
  • 190620Z VRB02KT 4000 +RA NSC 12/12 Q1012 NOSIG

EXPIRED METARs :
  • 190550Z VRB01KT 4200 RA FEW004 SCT035 BKN150 12/12 Q1012 NOSIG
  • 190520Z AUTO VRB01KT 2400 +RA FEW030 SCT110 BKN150 12/12 Q1011
  • 190450Z AUTO VRB02KT 4400 RA BKN006 SCT150 12/12 Q1011
  • 190420Z AUTO VRB01KT 7000 -RA FEW049 BKN070 OVC090 12/12 Q1011
  • 190350Z AUTO 06003KT 8000 -RA SCT050 SCT070 BKN100 12/12 Q1011

TAF TAF LSZG
Valid from the 19 at 06:00 until the 19 at 15:00 UTC


190525Z 1906/1915 VRB03KT 7000 -RA FEW005 SCT045 BKN070
TEMPO 1906/1909 4500 RA BKN007
PROB30 1911/1915 08008KT
ATIS : +41 32 396 96 33



MET'MAP, your aeronautical weather chart ! - Copyright ORBIFLY December 2007 - Disclaimer

ORBIFLY MET'MAP TEAM :

Programming & Development : Alexandra Zaïnal
Concept & Development : Baudouin d'Aumeries
Co-Development & Prog : Marc-Olivier Méhu
Technical & hardware support : Manuel Goepfert

Contact : metmap@orbifly.com




SOURCES & CREDITS :

   NOAA